sensor_id;sensor_type;location;lat;lon;timestamp;temperature;humidity
38436;DHT22;24220;48.168;14.024;2023-04-03T00:01:19;11.70;59.50
38436;DHT22;24220;48.168;14.024;2023-04-03T00:03:46;11.70;59.70
38436;DHT22;24220;48.168;14.024;2023-04-03T00:06:16;11.70;59.50
38436;DHT22;24220;48.168;14.024;2023-04-03T00:08:45;11.70;59.80
38436;DHT22;24220;48.168;14.024;2023-04-03T00:11:13;11.70;59.90
38436;DHT22;24220;48.168;14.024;2023-04-03T00:13:43;11.70;60.00
38436;DHT22;24220;48.168;14.024;2023-04-03T00:16:13;11.70;59.90
38436;DHT22;24220;48.168;14.024;2023-04-03T00:18:45;11.70;59.60
38436;DHT22;24220;48.168;14.024;2023-04-03T00:21:14;11.60;59.60
38436;DHT22;24220;48.168;14.024;2023-04-03T00:23:42;11.70;59.70
38436;DHT22;24220;48.168;14.024;2023-04-03T00:26:12;11.70;59.70
38436;DHT22;24220;48.168;14.024;2023-04-03T00:28:44;11.70;59.60
38436;DHT22;24220;48.168;14.024;2023-04-03T00:31:14;11.70;59.70
38436;DHT22;24220;48.168;14.024;2023-04-03T00:33:42;11.70;59.60
38436;DHT22;24220;48.168;14.024;2023-04-03T00:36:10;11.70;59.50
38436;DHT22;24220;48.168;14.024;2023-04-03T00:38:38;11.70;59.20
38436;DHT22;24220;48.168;14.024;2023-04-03T00:41:08;11.70;59.30
38436;DHT22;24220;48.168;14.024;2023-04-03T00:43:36;11.60;59.20
38436;DHT22;24220;48.168;14.024;2023-04-03T00:46:03;11.60;59.00
38436;DHT22;24220;48.168;14.024;2023-04-03T00:48:34;11.60;59.20
38436;DHT22;24220;48.168;14.024;2023-04-03T00:51:07;11.60;59.30
38436;DHT22;24220;48.168;14.024;2023-04-03T00:53:58;11.60;59.30
38436;DHT22;24220;48.168;14.024;2023-04-03T00:56:27;11.60;59.30
38436;DHT22;24220;48.168;14.024;2023-04-03T00:59:02;11.60;59.20
38436;DHT22;24220;48.168;14.024;2023-04-03T01:01:31;11.60;58.90
38436;DHT22;24220;48.168;14.024;2023-04-03T01:04:02;11.60;59.00
38436;DHT22;24220;48.168;14.024;2023-04-03T01:06:34;11.60;59.10
38436;DHT22;24220;48.168;14.024;2023-04-03T01:09:03;11.60;59.20
38436;DHT22;24220;48.168;14.024;2023-04-03T01:11:33;11.60;59.30
38436;DHT22;24220;48.168;14.024;2023-04-03T01:14:00;11.60;59.10
38436;DHT22;24220;48.168;14.024;2023-04-03T01:16:29;11.60;59.20
38436;DHT22;24220;48.168;14.024;2023-04-03T01:19:00;11.60;59.20
38436;DHT22;24220;48.168;14.024;2023-04-03T01:24:37;11.50;59.50
38436;DHT22;24220;48.168;14.024;2023-04-03T01:27:10;11.50;59.30
38436;DHT22;24220;48.168;14.024;2023-04-03T01:29:40;11.60;59.70
38436;DHT22;24220;48.168;14.024;2023-04-03T01:32:10;11.60;59.50
38436;DHT22;24220;48.168;14.024;2023-04-03T01:34:38;11.50;59.40
38436;DHT22;24220;48.168;14.024;2023-04-03T01:37:07;11.60;59.30
38436;DHT22;24220;48.168;14.024;2023-04-03T01:39:37;11.50;59.30
38436;DHT22;24220;48.168;14.024;2023-04-03T01:42:06;11.60;59.30
38436;DHT22;24220;48.168;14.024;2023-04-03T01:44:34;11.60;59.20
38436;DHT22;24220;48.168;14.024;2023-04-03T01:47:01;11.50;59.30
38436;DHT22;24220;48.168;14.024;2023-04-03T01:49:28;11.60;59.40
38436;DHT22;24220;48.168;14.024;2023-04-03T01:51:55;11.50;59.00
38436;DHT22;24220;48.168;14.024;2023-04-03T01:54:23;11.50;59.00
38436;DHT22;24220;48.168;14.024;2023-04-03T01:56:50;11.50;59.30
38436;DHT22;24220;48.168;14.024;2023-04-03T01:59:18;11.50;59.20
38436;DHT22;24220;48.168;14.024;2023-04-03T02:01:46;11.50;59.10
38436;DHT22;24220;48.168;14.024;2023-04-03T02:04:13;11.50;59.10
38436;DHT22;24220;48.168;14.024;2023-04-03T02:06:40;11.50;59.00
38436;DHT22;24220;48.168;14.024;2023-04-03T02:09:08;11.50;58.90
38436;DHT22;24220;48.168;14.024;2023-04-03T02:11:35;11.50;58.90
38436;DHT22;24220;48.168;14.024;2023-04-03T02:14:02;11.50;59.00
38436;DHT22;24220;48.168;14.024;2023-04-03T02:16:30;11.50;58.80
38436;DHT22;24220;48.168;14.024;2023-04-03T02:18:59;11.50;59.00
38436;DHT22;24220;48.168;14.024;2023-04-03T02:21:26;11.50;58.90
38436;DHT22;24220;48.168;14.024;2023-04-03T02:23:54;11.50;58.90
38436;DHT22;24220;48.168;14.024;2023-04-03T02:26:22;11.50;58.90
38436;DHT22;24220;48.168;14.024;2023-04-03T02:28:52;11.50;59.00
38436;DHT22;24220;48.168;14.024;2023-04-03T02:31:19;11.50;59.00
38436;DHT22;24220;48.168;14.024;2023-04-03T02:33:48;11.50;59.00
38436;DHT22;24220;48.168;14.024;2023-04-03T02:36:15;11.50;59.10
38436;DHT22;24220;48.168;14.024;2023-04-03T02:38:42;11.50;59.00
38436;DHT22;24220;48.168;14.024;2023-04-03T02:41:15;11.40;59.00
38436;DHT22;24220;48.168;14.024;2023-04-03T02:43:42;11.40;58.80
38436;DHT22;24220;48.168;14.024;2023-04-03T02:46:10;11.50;58.90
38436;DHT22;24220;48.168;14.024;2023-04-03T02:48:37;11.40;58.80
38436;DHT22;24220;48.168;14.024;2023-04-03T02:51:04;11.40;58.70
38436;DHT22;24220;48.168;14.024;2023-04-03T02:53:32;11.50;58.70
38436;DHT22;24220;48.168;14.024;2023-04-03T02:55:59;11.40;58.80
38436;DHT22;24220;48.168;14.024;2023-04-03T02:58:26;11.40;58.50
38436;DHT22;24220;48.168;14.024;2023-04-03T03:00:54;11.40;58.60
38436;DHT22;24220;48.168;14.024;2023-04-03T03:03:21;11.40;58.70
38436;DHT22;24220;48.168;14.024;2023-04-03T03:05:48;11.40;58.60
38436;DHT22;24220;48.168;14.024;2023-04-03T03:08:16;11.40;58.60
38436;DHT22;24220;48.168;14.024;2023-04-03T03:10:47;11.40;58.60
38436;DHT22;24220;48.168;14.024;2023-04-03T03:13:14;11.40;58.70
38436;DHT22;24220;48.168;14.024;2023-04-03T03:15:41;11.40;58.70
38436;DHT22;24220;48.168;14.024;2023-04-03T03:18:09;11.40;58.60
38436;DHT22;24220;48.168;14.024;2023-04-03T03:20:36;11.50;58.60
38436;DHT22;24220;48.168;14.024;2023-04-03T03:23:04;11.40;58.60
38436;DHT22;24220;48.168;14.024;2023-04-03T03:25:31;11.40;58.50
38436;DHT22;24220;48.168;14.024;2023-04-03T03:28:01;11.40;58.60
38436;DHT22;24220;48.168;14.024;2023-04-03T03:30:28;11.40;58.60
38436;DHT22;24220;48.168;14.024;2023-04-03T03:32:55;11.40;58.60
38436;DHT22;24220;48.168;14.024;2023-04-03T03:35:23;11.40;58.60
38436;DHT22;24220;48.168;14.024;2023-04-03T03:37:52;11.40;58.50
38436;DHT22;24220;48.168;14.024;2023-04-03T03:40:20;11.40;58.50
38436;DHT22;24220;48.168;14.024;2023-04-03T03:42:47;11.40;58.60
38436;DHT22;24220;48.168;14.024;2023-04-03T03:45:17;11.40;58.50
38436;DHT22;24220;48.168;14.024;2023-04-03T03:47:46;11.40;58.50
38436;DHT22;24220;48.168;14.024;2023-04-03T03:50:14;11.40;58.60
38436;DHT22;24220;48.168;14.024;2023-04-03T03:52:41;11.40;58.80
38436;DHT22;24220;48.168;14.024;2023-04-03T03:55:11;11.40;58.90
38436;DHT22;24220;48.168;14.024;2023-04-03T03:57:38;11.40;58.90
38436;DHT22;24220;48.168;14.024;2023-04-03T04:00:06;11.40;58.90
38436;DHT22;24220;48.168;14.024;2023-04-03T04:02:34;11.30;58.90
38436;DHT22;24220;48.168;14.024;2023-04-03T04:05:02;11.30;58.70
38436;DHT22;24220;48.168;14.024;2023-04-03T04:07:29;11.30;58.70
38436;DHT22;24220;48.168;14.024;2023-04-03T04:09:56;11.30;58.70
38436;DHT22;24220;48.168;14.024;2023-04-03T04:12:24;11.30;58.50
38436;DHT22;24220;48.168;14.024;2023-04-03T04:14:53;11.30;58.80
38436;DHT22;24220;48.168;14.024;2023-04-03T04:17:21;11.30;58.70
38436;DHT22;24220;48.168;14.024;2023-04-03T04:19:49;11.30;58.40
38436;DHT22;24220;48.168;14.024;2023-04-03T04:22:16;11.20;58.30
38436;DHT22;24220;48.168;14.024;2023-04-03T04:24:43;11.20;58.20
38436;DHT22;24220;48.168;14.024;2023-04-03T04:27:13;11.30;58.20
38436;DHT22;24220;48.168;14.024;2023-04-03T04:29:40;11.20;58.00
38436;DHT22;24220;48.168;14.024;2023-04-03T04:32:07;11.20;58.00
38436;DHT22;24220;48.168;14.024;2023-04-03T04:34:38;11.20;57.90
38436;DHT22;24220;48.168;14.024;2023-04-03T04:37:05;11.20;57.60
38436;DHT22;24220;48.168;14.024;2023-04-03T04:39:35;11.20;57.70
38436;DHT22;24220;48.168;14.024;2023-04-03T04:42:03;11.20;57.50
38436;DHT22;24220;48.168;14.024;2023-04-03T04:44:30;11.20;57.40
38436;DHT22;24220;48.168;14.024;2023-04-03T04:46:57;11.20;57.30
38436;DHT22;24220;48.168;14.024;2023-04-03T04:49:27;11.20;57.40
38436;DHT22;24220;48.168;14.024;2023-04-03T04:51:54;11.20;57.40
38436;DHT22;24220;48.168;14.024;2023-04-03T04:54:22;11.20;57.30
38436;DHT22;24220;48.168;14.024;2023-04-03T04:56:49;11.20;57.20
38436;DHT22;24220;48.168;14.024;2023-04-03T04:59:17;11.10;57.10
38436;DHT22;24220;48.168;14.024;2023-04-03T05:01:47;11.20;57.00
38436;DHT22;24220;48.168;14.024;2023-04-03T05:04:19;11.20;57.10
38436;DHT22;24220;48.168;14.024;2023-04-03T05:06:49;11.10;57.20
38436;DHT22;24220;48.168;14.024;2023-04-03T05:09:19;11.10;57.10
38436;DHT22;24220;48.168;14.024;2023-04-03T05:11:47;11.10;57.10
38436;DHT22;24220;48.168;14.024;2023-04-03T05:14:19;11.20;57.00
38436;DHT22;24220;48.168;14.024;2023-04-03T05:16:47;11.10;56.90
38436;DHT22;24220;48.168;14.024;2023-04-03T05:19:17;11.10;56.90
38436;DHT22;24220;48.168;14.024;2023-04-03T05:21:47;11.10;56.90
38436;DHT22;24220;48.168;14.024;2023-04-03T05:24:17;11.10;56.80
38436;DHT22;24220;48.168;14.024;2023-04-03T05:26:47;11.10;57.00
38436;DHT22;24220;48.168;14.024;2023-04-03T05:29:14;11.10;57.10
38436;DHT22;24220;48.168;14.024;2023-04-03T05:31:42;11.10;57.10
38436;DHT22;24220;48.168;14.024;2023-04-03T05:34:09;11.10;57.40
38436;DHT22;24220;48.168;14.024;2023-04-03T05:36:37;11.10;57.30
38436;DHT22;24220;48.168;14.024;2023-04-03T05:39:04;11.10;57.30
38436;DHT22;24220;48.168;14.024;2023-04-03T05:41:36;11.10;57.30
38436;DHT22;24220;48.168;14.024;2023-04-03T05:44:06;11.10;57.30
38436;DHT22;24220;48.168;14.024;2023-04-03T05:46:33;11.10;57.50
38436;DHT22;24220;48.168;14.024;2023-04-03T05:49:03;11.10;57.50
38436;DHT22;24220;48.168;14.024;2023-04-03T05:51:36;11.10;57.60
38436;DHT22;24220;48.168;14.024;2023-04-03T05:54:35;11.10;57.70
38436;DHT22;24220;48.168;14.024;2023-04-03T05:57:01;11.10;57.40
38436;DHT22;24220;48.168;14.024;2023-04-03T05:59:28;11.10;58.00
38436;DHT22;24220;48.168;14.024;2023-04-03T06:01:56;11.10;57.60
38436;DHT22;24220;48.168;14.024;2023-04-03T06:04:23;11.10;57.60
38436;DHT22;24220;48.168;14.024;2023-04-03T06:06:56;11.20;57.70
38436;DHT22;24220;48.168;14.024;2023-04-03T06:09:27;11.20;57.60
38436;DHT22;24220;48.168;14.024;2023-04-03T06:11:57;11.20;57.50
38436;DHT22;24220;48.168;14.024;2023-04-03T06:14:25;11.20;57.50
38436;DHT22;24220;48.168;14.024;2023-04-03T06:16:53;11.20;57.60
38436;DHT22;24220;48.168;14.024;2023-04-03T06:19:24;11.20;57.60
38436;DHT22;24220;48.168;14.024;2023-04-03T06:21:56;11.20;57.50
38436;DHT22;24220;48.168;14.024;2023-04-03T06:24:23;11.30;57.70
38436;DHT22;24220;48.168;14.024;2023-04-03T06:26:52;11.20;57.50
38436;DHT22;24220;48.168;14.024;2023-04-03T06:29:22;11.30;57.60
38436;DHT22;24220;48.168;14.024;2023-04-03T06:31:50;11.30;57.60
38436;DHT22;24220;48.168;14.024;2023-04-03T06:34:18;11.30;57.50
38436;DHT22;24220;48.168;14.024;2023-04-03T06:36:46;11.30;57.30
38436;DHT22;24220;48.168;14.024;2023-04-03T06:39:20;11.30;57.30
38436;DHT22;24220;48.168;14.024;2023-04-03T06:41:49;11.30;57.00
38436;DHT22;24220;48.168;14.024;2023-04-03T06:44:17;11.30;57.20
38436;DHT22;24220;48.168;14.024;2023-04-03T06:46:45;11.30;57.40
38436;DHT22;24220;48.168;14.024;2023-04-03T06:49:13;11.30;57.30
38436;DHT22;24220;48.168;14.024;2023-04-03T06:51:42;11.30;57.40
38436;DHT22;24220;48.168;14.024;2023-04-03T06:54:09;11.30;57.60
38436;DHT22;24220;48.168;14.024;2023-04-03T06:56:36;11.30;57.60
38436;DHT22;24220;48.168;14.024;2023-04-03T06:59:04;11.30;57.60
38436;DHT22;24220;48.168;14.024;2023-04-03T07:01:33;11.30;57.60
38436;DHT22;24220;48.168;14.024;2023-04-03T07:04:01;11.40;57.50
38436;DHT22;24220;48.168;14.024;2023-04-03T07:06:31;11.40;57.40
38436;DHT22;24220;48.168;14.024;2023-04-03T07:09:00;11.40;57.30
38436;DHT22;24220;48.168;14.024;2023-04-03T07:11:29;11.40;57.10
38436;DHT22;24220;48.168;14.024;2023-04-03T07:13:59;11.40;57.00
38436;DHT22;24220;48.168;14.024;2023-04-03T07:16:32;11.50;56.70
38436;DHT22;24220;48.168;14.024;2023-04-03T07:19:02;11.50;56.20
38436;DHT22;24220;48.168;14.024;2023-04-03T07:21:29;11.50;56.20
38436;DHT22;24220;48.168;14.024;2023-04-03T07:23:57;11.50;56.20
38436;DHT22;24220;48.168;14.024;2023-04-03T07:26:30;11.50;56.10
38436;DHT22;24220;48.168;14.024;2023-04-03T07:29:02;11.50;55.70
38436;DHT22;24220;48.168;14.024;2023-04-03T07:31:30;11.60;55.50
38436;DHT22;24220;48.168;14.024;2023-04-03T07:34:01;11.60;55.70
38436;DHT22;24220;48.168;14.024;2023-04-03T07:36:28;11.60;55.40
38436;DHT22;24220;48.168;14.024;2023-04-03T07:39:02;11.70;55.10
38436;DHT22;24220;48.168;14.024;2023-04-03T07:41:30;11.70;54.70
38436;DHT22;24220;48.168;14.024;2023-04-03T07:43:59;11.70;55.10
38436;DHT22;24220;48.168;14.024;2023-04-03T07:46:30;11.70;55.10
38436;DHT22;24220;48.168;14.024;2023-04-03T07:48:57;11.70;55.10
38436;DHT22;24220;48.168;14.024;2023-04-03T07:51:24;11.70;55.20
38436;DHT22;24220;48.168;14.024;2023-04-03T07:53:57;11.70;55.00
38436;DHT22;24220;48.168;14.024;2023-04-03T07:56:25;11.80;54.80
38436;DHT22;24220;48.168;14.024;2023-04-03T07:58:52;11.80;54.90
38436;DHT22;24220;48.168;14.024;2023-04-03T08:01:20;11.80;55.00
38436;DHT22;24220;48.168;14.024;2023-04-03T08:03:50;11.80;55.00
38436;DHT22;24220;48.168;14.024;2023-04-03T08:06:18;11.80;55.20
38436;DHT22;24220;48.168;14.024;2023-04-03T08:08:59;11.80;55.20
38436;DHT22;24220;48.168;14.024;2023-04-03T08:11:29;11.90;55.00
38436;DHT22;24220;48.168;14.024;2023-04-03T08:13:57;11.90;54.60
38436;DHT22;24220;48.168;14.024;2023-04-03T08:16:25;11.90;54.40
38436;DHT22;24220;48.168;14.024;2023-04-03T08:18:54;11.90;54.30
38436;DHT22;24220;48.168;14.024;2023-04-03T08:21:24;11.80;54.30
38436;DHT22;24220;48.168;14.024;2023-04-03T08:23:54;11.80;54.60
38436;DHT22;24220;48.168;14.024;2023-04-03T08:26:22;11.80;54.90
38436;DHT22;24220;48.168;14.024;2023-04-03T08:28:49;11.70;55.00
38436;DHT22;24220;48.168;14.024;2023-04-03T08:31:18;11.70;55.20
38436;DHT22;24220;48.168;14.024;2023-04-03T08:33:51;11.60;55.50
38436;DHT22;24220;48.168;14.024;2023-04-03T08:36:28;11.50;55.40
38436;DHT22;24220;48.168;14.024;2023-04-03T08:38:57;11.50;55.50
38436;DHT22;24220;48.168;14.024;2023-04-03T08:47:24;11.30;57.50
38436;DHT22;24220;48.168;14.024;2023-04-03T08:50:06;11.20;57.70
38436;DHT22;24220;48.168;14.024;2023-04-03T08:52:48;11.20;58.80
38436;DHT22;24220;48.168;14.024;2023-04-03T08:57:49;11.10;57.30
38436;DHT22;24220;48.168;14.024;2023-04-03T09:00:21;11.10;57.80
38436;DHT22;24220;48.168;14.024;2023-04-03T09:02:50;11.00;58.40
38436;DHT22;24220;48.168;14.024;2023-04-03T09:05:20;11.10;58.80
38436;DHT22;24220;48.168;14.024;2023-04-03T09:08:03;11.10;59.40
38436;DHT22;24220;48.168;14.024;2023-04-03T09:10:36;11.10;59.30
38436;DHT22;24220;48.168;14.024;2023-04-03T09:15:41;11.10;59.20
38436;DHT22;24220;48.168;14.024;2023-04-03T09:18:26;11.10;59.00
38436;DHT22;24220;48.168;14.024;2023-04-03T09:21:19;11.20;59.00
38436;DHT22;24220;48.168;14.024;2023-04-03T09:23:51;11.20;58.90
38436;DHT22;24220;48.168;14.024;2023-04-03T09:26:35;11.20;59.10
38436;DHT22;24220;48.168;14.024;2023-04-03T09:29:06;11.20;59.30
38436;DHT22;24220;48.168;14.024;2023-04-03T09:31:40;11.30;59.10
38436;DHT22;24220;48.168;14.024;2023-04-03T09:34:20;11.30;59.10
38436;DHT22;24220;48.168;14.024;2023-04-03T09:36:54;11.30;59.20
38436;DHT22;24220;48.168;14.024;2023-04-03T09:39:25;11.30;58.90
38436;DHT22;24220;48.168;14.024;2023-04-03T09:44:39;11.40;58.30
38436;DHT22;24220;48.168;14.024;2023-04-03T09:49:46;11.40;56.20
38436;DHT22;24220;48.168;14.024;2023-04-03T09:52:26;11.50;56.00
38436;DHT22;24220;48.168;14.024;2023-04-03T09:54:53;11.50;55.00
38436;DHT22;24220;48.168;14.024;2023-04-03T09:57:32;11.50;55.10
38436;DHT22;24220;48.168;14.024;2023-04-03T10:00:04;11.60;54.60
38436;DHT22;24220;48.168;14.024;2023-04-03T10:02:36;11.60;55.10
38436;DHT22;24220;48.168;14.024;2023-04-03T10:05:24;11.60;54.60
38436;DHT22;24220;48.168;14.024;2023-04-03T10:08:22;11.70;54.50
38436;DHT22;24220;48.168;14.024;2023-04-03T10:13:33;11.80;53.50
38436;DHT22;24220;48.168;14.024;2023-04-03T10:16:20;11.90;53.60
38436;DHT22;24220;48.168;14.024;2023-04-03T10:27:08;12.10;53.00
38436;DHT22;24220;48.168;14.024;2023-04-03T10:29:43;12.10;53.10
38436;DHT22;24220;48.168;14.024;2023-04-03T10:48:47;12.70;51.40
38436;DHT22;24220;48.168;14.024;2023-04-03T10:51:33;12.80;52.00
38436;DHT22;24220;48.168;14.024;2023-04-03T10:54:11;12.90;51.40
38436;DHT22;24220;48.168;14.024;2023-04-03T10:56:48;13.00;51.40
38436;DHT22;24220;48.168;14.024;2023-04-03T11:00:03;13.10;50.50
38436;DHT22;24220;48.168;14.024;2023-04-03T11:02:51;13.20;50.60
38436;DHT22;24220;48.168;14.024;2023-04-03T11:05:48;13.30;50.30
38436;DHT22;24220;48.168;14.024;2023-04-03T11:10:56;13.30;49.70
38436;DHT22;24220;48.168;14.024;2023-04-03T11:16:00;13.30;49.10
38436;DHT22;24220;48.168;14.024;2023-04-03T11:18:46;13.30;49.30
38436;DHT22;24220;48.168;14.024;2023-04-03T11:23:52;13.30;48.60
38436;DHT22;24220;48.168;14.024;2023-04-03T11:26:23;13.30;48.60
38436;DHT22;24220;48.168;14.024;2023-04-03T11:28:58;13.30;48.30
38436;DHT22;24220;48.168;14.024;2023-04-03T11:34:44;13.20;48.90
38436;DHT22;24220;48.168;14.024;2023-04-03T11:39:57;13.10;48.80
38436;DHT22;24220;48.168;14.024;2023-04-03T11:48:41;13.00;48.50
38436;DHT22;24220;48.168;14.024;2023-04-03T11:50:55;13.10;48.20
38436;DHT22;24220;48.168;14.024;2023-04-03T11:58:33;13.00;47.90
38436;DHT22;24220;48.168;14.024;2023-04-03T12:01:05;13.00;47.90
38436;DHT22;24220;48.168;14.024;2023-04-03T12:03:57;13.10;47.90
38436;DHT22;24220;48.168;14.024;2023-04-03T12:08:55;13.10;48.40
38436;DHT22;24220;48.168;14.024;2023-04-03T12:11:30;13.00;48.00
38436;DHT22;24220;48.168;14.024;2023-04-03T12:16:28;12.90;48.50
38436;DHT22;24220;48.168;14.024;2023-04-03T12:40:31;12.50;48.00
38436;DHT22;24220;48.168;14.024;2023-04-03T12:43:28;12.50;47.80
38436;DHT22;24220;48.168;14.024;2023-04-03T12:54:26;12.40;47.40
38436;DHT22;24220;48.168;14.024;2023-04-03T12:57:16;12.40;47.60
38436;DHT22;24220;48.168;14.024;2023-04-03T12:59:44;12.40;47.30
38436;DHT22;24220;48.168;14.024;2023-04-03T13:02:29;12.40;47.90
38436;DHT22;24220;48.168;14.024;2023-04-03T13:05:08;12.40;46.90
38436;DHT22;24220;48.168;14.024;2023-04-03T13:07:38;12.40;47.20
38436;DHT22;24220;48.168;14.024;2023-04-03T13:12:49;12.50;48.20
38436;DHT22;24220;48.168;14.024;2023-04-03T13:15:26;12.50;47.10
38436;DHT22;24220;48.168;14.024;2023-04-03T13:17:56;12.50;46.70
38436;DHT22;24220;48.168;14.024;2023-04-03T13:20:30;12.50;46.30
38436;DHT22;24220;48.168;14.024;2023-04-03T13:23:02;12.50;47.30
38436;DHT22;24220;48.168;14.024;2023-04-03T13:25:33;12.50;46.80
38436;DHT22;24220;48.168;14.024;2023-04-03T13:28:10;12.50;46.00
38436;DHT22;24220;48.168;14.024;2023-04-03T13:30:41;12.60;46.40
38436;DHT22;24220;48.168;14.024;2023-04-03T13:33:25;12.60;46.40
38436;DHT22;24220;48.168;14.024;2023-04-03T13:35:58;12.60;46.30
38436;DHT22;24220;48.168;14.024;2023-04-03T13:38:29;12.70;46.70
38436;DHT22;24220;48.168;14.024;2023-04-03T13:41:20;12.70;46.70
38436;DHT22;24220;48.168;14.024;2023-04-03T13:43:51;12.80;46.10
38436;DHT22;24220;48.168;14.024;2023-04-03T13:46:28;12.90;46.40
38436;DHT22;24220;48.168;14.024;2023-04-03T13:48:58;12.90;46.10
38436;DHT22;24220;48.168;14.024;2023-04-03T13:51:44;13.00;46.80
38436;DHT22;24220;48.168;14.024;2023-04-03T13:54:22;13.00;45.70
38436;DHT22;24220;48.168;14.024;2023-04-03T13:56:55;13.10;45.30
38436;DHT22;24220;48.168;14.024;2023-04-03T13:59:32;13.10;45.30
38436;DHT22;24220;48.168;14.024;2023-04-03T14:04:32;13.10;44.70
38436;DHT22;24220;48.168;14.024;2023-04-03T14:07:00;13.10;44.70
38436;DHT22;24220;48.168;14.024;2023-04-03T14:09:27;13.10;44.90
38436;DHT22;24220;48.168;14.024;2023-04-03T14:12:04;13.10;44.80
38436;DHT22;24220;48.168;14.024;2023-04-03T14:14:46;13.10;44.30
38436;DHT22;24220;48.168;14.024;2023-04-03T14:17:19;13.10;43.60
38436;DHT22;24220;48.168;14.024;2023-04-03T14:19:52;13.00;42.80
38436;DHT22;24220;48.168;14.024;2023-04-03T14:22:25;13.10;43.40
38436;DHT22;24220;48.168;14.024;2023-04-03T14:24:58;13.00;43.70
38436;DHT22;24220;48.168;14.024;2023-04-03T14:27:34;13.00;43.80
38436;DHT22;24220;48.168;14.024;2023-04-03T14:30:02;13.00;43.90
38436;DHT22;24220;48.168;14.024;2023-04-03T14:32:31;13.00;44.10
38436;DHT22;24220;48.168;14.024;2023-04-03T14:34:58;12.90;43.60
38436;DHT22;24220;48.168;14.024;2023-04-03T14:37:29;13.00;44.20
38436;DHT22;24220;48.168;14.024;2023-04-03T14:39:59;13.00;44.00
38436;DHT22;24220;48.168;14.024;2023-04-03T14:42:30;13.00;43.60
38436;DHT22;24220;48.168;14.024;2023-04-03T14:45:10;13.00;43.60
38436;DHT22;24220;48.168;14.024;2023-04-03T14:47:46;13.00;43.50
38436;DHT22;24220;48.168;14.024;2023-04-03T14:50:17;13.00;43.30
38436;DHT22;24220;48.168;14.024;2023-04-03T14:52:45;13.00;43.50
38436;DHT22;24220;48.168;14.024;2023-04-03T14:55:15;13.00;43.60
38436;DHT22;24220;48.168;14.024;2023-04-03T14:57:48;13.00;43.30
38436;DHT22;24220;48.168;14.024;2023-04-03T15:00:20;12.90;43.20
38436;DHT22;24220;48.168;14.024;2023-04-03T15:02:47;12.90;42.20
38436;DHT22;24220;48.168;14.024;2023-04-03T15:05:19;12.90;42.60
38436;DHT22;24220;48.168;14.024;2023-04-03T15:07:50;12.90;42.60
38436;DHT22;24220;48.168;14.024;2023-04-03T15:10:20;12.80;42.70
38436;DHT22;24220;48.168;14.024;2023-04-03T15:12:51;12.80;43.20
38436;DHT22;24220;48.168;14.024;2023-04-03T15:15:22;12.80;43.10
38436;DHT22;24220;48.168;14.024;2023-04-03T15:17:52;12.80;43.20
38436;DHT22;24220;48.168;14.024;2023-04-03T15:20:26;12.80;43.00
38436;DHT22;24220;48.168;14.024;2023-04-03T15:22:57;12.80;42.80
38436;DHT22;24220;48.168;14.024;2023-04-03T15:25:28;12.80;42.80
38436;DHT22;24220;48.168;14.024;2023-04-03T15:28:01;12.80;42.70
38436;DHT22;24220;48.168;14.024;2023-04-03T15:30:30;12.80;42.40
38436;DHT22;24220;48.168;14.024;2023-04-03T15:32:58;12.80;42.40
38436;DHT22;24220;48.168;14.024;2023-04-03T15:35:25;12.80;42.60
38436;DHT22;24220;48.168;14.024;2023-04-03T15:37:55;12.80;42.40
38436;DHT22;24220;48.168;14.024;2023-04-03T15:40:22;12.70;42.10
38436;DHT22;24220;48.168;14.024;2023-04-03T15:42:52;12.70;42.20
38436;DHT22;24220;48.168;14.024;2023-04-03T15:45:23;12.70;42.40
38436;DHT22;24220;48.168;14.024;2023-04-03T15:47:50;12.60;42.30
38436;DHT22;24220;48.168;14.024;2023-04-03T15:50:18;12.60;42.50
38436;DHT22;24220;48.168;14.024;2023-04-03T15:52:46;12.60;42.60
38436;DHT22;24220;48.168;14.024;2023-04-03T15:55:22;12.60;42.80
38436;DHT22;24220;48.168;14.024;2023-04-03T15:57:49;12.60;43.00
38436;DHT22;24220;48.168;14.024;2023-04-03T16:00:18;12.60;43.00
38436;DHT22;24220;48.168;14.024;2023-04-03T16:02:52;12.60;43.10
38436;DHT22;24220;48.168;14.024;2023-04-03T16:05:20;12.50;42.60
38436;DHT22;24220;48.168;14.024;2023-04-03T16:07:50;12.50;42.60
38436;DHT22;24220;48.168;14.024;2023-04-03T16:10:18;12.50;42.40
38436;DHT22;24220;48.168;14.024;2023-04-03T16:12:45;12.50;42.60
38436;DHT22;24220;48.168;14.024;2023-04-03T16:15:13;12.40;42.50
38436;DHT22;24220;48.168;14.024;2023-04-03T16:17:40;12.40;42.70
38436;DHT22;24220;48.168;14.024;2023-04-03T16:20:13;12.30;42.80
38436;DHT22;24220;48.168;14.024;2023-04-03T16:22:41;12.30;43.10
38436;DHT22;24220;48.168;14.024;2023-04-03T16:25:09;12.30;43.30
38436;DHT22;24220;48.168;14.024;2023-04-03T16:27:37;12.30;43.50
38436;DHT22;24220;48.168;14.024;2023-04-03T16:30:06;12.20;42.90
38436;DHT22;24220;48.168;14.024;2023-04-03T16:32:34;12.20;43.10
38436;DHT22;24220;48.168;14.024;2023-04-03T16:35:02;12.20;43.30
38436;DHT22;24220;48.168;14.024;2023-04-03T16:37:29;12.20;43.20
38436;DHT22;24220;48.168;14.024;2023-04-03T16:40:01;12.10;43.20
38436;DHT22;24220;48.168;14.024;2023-04-03T16:42:29;12.10;43.20
38436;DHT22;24220;48.168;14.024;2023-04-03T16:44:57;12.00;43.30
38436;DHT22;24220;48.168;14.024;2023-04-03T16:47:25;12.00;43.10
38436;DHT22;24220;48.168;14.024;2023-04-03T16:49:53;12.00;43.10
38436;DHT22;24220;48.168;14.024;2023-04-03T16:52:20;11.90;43.20
38436;DHT22;24220;48.168;14.024;2023-04-03T16:54:50;11.90;43.20
38436;DHT22;24220;48.168;14.024;2023-04-03T16:57:25;11.80;43.30
38436;DHT22;24220;48.168;14.024;2023-04-03T16:59:52;11.80;43.50
38436;DHT22;24220;48.168;14.024;2023-04-03T17:02:25;11.80;43.50
38436;DHT22;24220;48.168;14.024;2023-04-03T17:04:55;11.80;43.70
38436;DHT22;24220;48.168;14.024;2023-04-03T17:07:23;11.70;43.90
38436;DHT22;24220;48.168;14.024;2023-04-03T17:09:51;11.70;43.90
38436;DHT22;24220;48.168;14.024;2023-04-03T17:12:21;11.70;44.00
38436;DHT22;24220;48.168;14.024;2023-04-03T17:14:49;11.70;44.00
38436;DHT22;24220;48.168;14.024;2023-04-03T17:17:21;11.60;44.00
38436;DHT22;24220;48.168;14.024;2023-04-03T17:19:52;11.60;44.20
38436;DHT22;24220;48.168;14.024;2023-04-03T17:22:20;11.60;44.40
38436;DHT22;24220;48.168;14.024;2023-04-03T17:24:48;11.60;44.60
38436;DHT22;24220;48.168;14.024;2023-04-03T17:27:15;11.60;44.90
38436;DHT22;24220;48.168;14.024;2023-04-03T17:29:42;11.50;45.30